Aérodrome :
LOGIN :

S'inscrire | Disclaimer

   EN    FR    IT 

 










Légende :    VFR   VFR Marginal   IFR   IFR Intensif   IFR Très Intensif
Visi : 
Plafond : 
>= 8 km
>= 3000ft
5 à 8 km
1000 à 3000 ft
1500m à 5 km
500 à 1000 ft
800 à 1500m
200 à 500 ft
< 800m
< 200 ft
Symboles :   Orages  Brouillard  Fortes neiges  Fortes précipitations  Vent > 20 kt
SIGMETs :   Divers  Orages  Givrage  Turbulence  Onde Orograph.  Cendres Volcan.







- Altitude de l'aérodrome : 1106 ft
- Voir les cartes d'approche


LFSO - Nancy / Ochey

DERNIER METAR :
  • 270130Z AUTO 00000KT 9999 ///TCU 18/17 Q1011

METARs EXPIRÉS :
  • 270100Z AUTO 06003KT 360V100 9999 -RADZ NSC 18/17 Q1011
  • 270030Z AUTO 00000KT 9999 -RA ///TCU 19/17 Q1011
  • 270000Z AUTO VRB02KT 9999 -RA ///TCU 19/16 Q1011
  • 262330Z AUTO VRB01KT 9999 ///TCU 19/16 Q1011
  • 262300Z AUTO 17004KT 140V200 9999 ///TCU 20/15 Q1011

TAF TAF LFSO
Valide du 26 à 15h jusqu'au 27 à 15h UTC


261400Z 2615/2715 07005KT CAVOK
PROB40
TEMPO 2617/2707 VRB15G25KT 3500 TSRA SCT030 SCT060CB OVC080
PROB30
TEMPO 2703/2706 BKN007 BKN015TCU
TEMPO 2709/2715 VRB15G25KT 3000 TSRA BKN015 BKN030CB
Pas de NOTAMs connus pour ce terrain.



MET'MAP, la Météo Aéronautique d'un coup d'oeil ! - Copyright ORBIFLY Décembre 2007 - Disclaimer

ORBIFLY MET'MAP TEAM :

Programmation & Développement : Alexandra Zaïnal
Conception & Développement : Baudouin d'Aumeries
Co-Programmation & Développement : Marc-Olivier Méhu
Soutien technique & logistique : Manuel Goepfert

Contact : metmap@orbifly.com




SOURCES & CREDITS :

   NOAA